Time;durP1;ratioP1;P1;durP2;ratioP2;P2;SDS_P1;SDS_P2;PMS_P1;PMS_P2;Temp;Humidity;BMP_temperature;BMP_pressure;BME280_temperature;BME280_humidity;BME280_pressure;Samples;Min_cycle;Max_cycle;Signal;HPM_P1;HPM_P2
2023/07/26 00:00:12;;;;;;;5.10;1.50;;;14.80;99.90;;;;;;2091093;28;20108;-71
2023/07/26 00:01:12;;;;;;;3.10;1.65;;;14.80;99.90;;;;;;2092064;28;20476;-71
2023/07/26 00:02:13;;;;;;;2.00;1.48;;;14.80;99.90;;;;;;2091114;28;20098;-71
2023/07/26 00:03:13;;;;;;;1.95;1.60;;;14.80;99.90;;;;;;2090699;28;20044;-71
2023/07/26 00:04:14;;;;;;;2.35;1.48;;;14.80;99.90;;;;;;2092126;28;20115;-71
2023/07/26 00:05:15;;;;;;;2.92;1.25;;;14.80;99.90;;;;;;2090928;28;20105;-71
2023/07/26 00:06:15;;;;;;;1.27;1.17;;;14.80;99.90;;;;;;2093221;28;20024;-71
2023/07/26 00:07:16;;;;;;;3.40;2.10;;;14.80;99.90;;;;;;2090931;28;20024;-71
2023/07/26 00:08:16;;;;;;;3.45;1.52;;;14.80;99.90;;;;;;2089748;28;20036;-71
2023/07/26 00:09:17;;;;;;;1.90;1.38;;;14.80;99.90;;;;;;2091445;28;20056;-71
2023/07/26 00:10:18;;;;;;;2.55;1.67;;;14.80;99.90;;;;;;2089444;28;20475;-71
2023/07/26 00:11:19;;;;;;;3.35;1.38;;;14.80;99.90;;;;;;2091788;28;20508;-71
2023/07/26 00:12:19;;;;;;;2.97;1.70;;;14.80;99.90;;;;;;2091598;28;20017;-71
2023/07/26 00:13:20;;;;;;;2.47;1.80;;;14.80;99.90;;;;;;2083623;28;20033;-71
2023/07/26 00:14:20;;;;;;;2.10;1.48;;;14.80;99.90;;;;;;2084603;28;20022;-71
2023/07/26 00:15:21;;;;;;;1.98;1.50;;;14.80;99.90;;;;;;2090975;28;20056;-71
2023/07/26 00:16:21;;;;;;;2.50;1.65;;;14.80;99.90;;;;;;2092572;28;20661;-71
2023/07/26 00:17:22;;;;;;;4.30;1.75;;;14.80;99.90;;;;;;2090336;28;20024;-71
2023/07/26 00:18:22;;;;;;;3.10;1.90;;;14.80;99.90;;;;;;2093106;28;20045;-71
2023/07/26 00:19:23;;;;;;;2.10;1.90;;;14.80;99.90;;;;;;2091292;28;20025;-71
2023/07/26 00:20:24;;;;;;;2.90;1.50;;;14.80;99.90;;;;;;2091687;28;20472;-71
2023/07/26 00:21:24;;;;;;;3.13;1.70;;;14.80;99.90;;;;;;2090681;28;20021;-71
2023/07/26 00:22:25;;;;;;;2.47;1.50;;;14.80;99.90;;;;;;2091200;28;20040;-71
2023/07/26 00:23:25;;;;;;;1.58;1.48;;;14.80;99.90;;;;;;2091707;28;20092;-71
2023/07/26 00:24:26;;;;;;;1.75;1.42;;;14.80;99.90;;;;;;2091166;28;20511;-71
2023/07/26 00:25:26;;;;;;;3.45;1.52;;;14.80;99.90;;;;;;2091527;28;20115;-71
2023/07/26 00:26:27;;;;;;;1.55;1.30;;;14.80;99.90;;;;;;2089813;28;20122;-71
2023/07/26 00:27:27;;;;;;;4.78;1.70;;;14.80;99.90;;;;;;2092098;28;20059;-71
2023/07/26 00:28:29;;;;;;;3.65;1.90;;;14.80;99.90;;;;;;2095405;28;20017;-71
2023/07/26 00:29:30;;;;;;;1.50;1.40;;;14.80;99.90;;;;;;2093640;28;20037;-71
2023/07/26 00:30:30;;;;;;;2.75;1.80;;;14.80;99.90;;;;;;2091859;28;20423;-71
2023/07/26 00:31:31;;;;;;;3.67;1.50;;;14.80;99.90;;;;;;2094343;28;20137;-71
2023/07/26 00:32:32;;;;;;;3.05;1.90;;;14.80;99.90;;;;;;2093674;28;20463;-71
2023/07/26 00:33:32;;;;;;;3.03;1.48;;;14.80;99.90;;;;;;2092684;28;20031;-71
2023/07/26 00:34:34;;;;;;;2.90;1.90;;;14.80;99.90;;;;;;2091891;28;20122;-71
2023/07/26 00:35:40;;;;;;;1.67;1.58;;;14.80;99.90;;;;;;2095376;28;20444;-71
2023/07/26 00:36:40;;;;;;;3.58;1.70;;;14.80;99.90;;;;;;2094028;28;20021;-71
2023/07/26 00:37:41;;;;;;;2.00;1.80;;;14.80;99.90;;;;;;2093397;28;20112;-71
2023/07/26 00:38:41;;;;;;;2.42;1.70;;;14.80;99.90;;;;;;2092376;28;20064;-71
2023/07/26 00:39:42;;;;;;;6.10;1.70;;;14.80;99.90;;;;;;2092498;28;20031;-71
2023/07/26 00:40:42;;;;;;;2.70;1.75;;;14.80;99.90;;;;;;2090397;28;20021;-71
2023/07/26 00:41:43;;;;;;;2.65;1.60;;;14.80;99.90;;;;;;2096700;28;20054;-71
2023/07/26 00:42:43;;;;;;;2.03;1.60;;;14.80;99.90;;;;;;2095337;28;20017;-71
2023/07/26 00:43:44;;;;;;;2.10;1.48;;;14.80;99.90;;;;;;2096006;28;20048;-71
2023/07/26 00:44:45;;;;;;;1.45;1.33;;;14.80;99.90;;;;;;2093924;28;20021;-71
2023/07/26 00:45:46;;;;;;;1.60;1.45;;;14.80;99.90;;;;;;2095362;28;20024;-71
2023/07/26 00:46:47;;;;;;;1.98;1.60;;;14.80;99.90;;;;;;2094588;28;20499;-71
2023/07/26 00:47:48;;;;;;;3.00;1.52;;;14.80;99.90;;;;;;2093646;28;20497;-71
2023/07/26 00:48:48;;;;;;;5.05;2.08;;;14.80;99.90;;;;;;2092998;28;20420;-71
2023/07/26 00:49:49;;;;;;;7.50;2.22;;;14.80;99.90;;;;;;2091346;28;20509;-71
2023/07/26 00:50:50;;;;;;;2.03;1.70;;;14.80;99.90;;;;;;2092399;28;20033;-71
2023/07/26 00:51:50;;;;;;;4.30;1.55;;;14.80;99.90;;;;;;2092686;28;20134;-71
2023/07/26 00:52:51;;;;;;;4.53;2.03;;;14.80;99.90;;;;;;2092517;28;20017;-71
2023/07/26 00:53:53;;;;;;;2.90;2.03;;;14.80;99.90;;;;;;2092830;28;20033;-71
2023/07/26 00:54:55;;;;;;;5.97;1.90;;;14.80;99.90;;;;;;2093008;28;20162;-71
2023/07/26 00:55:56;;;;;;;2.60;2.00;;;14.80;99.90;;;;;;2093931;28;20091;-71
2023/07/26 00:56:57;;;;;;;2.03;1.60;;;14.80;99.90;;;;;;2091675;28;20114;-70
2023/07/26 00:57:57;;;;;;;3.03;1.63;;;14.80;99.90;;;;;;2093055;28;20033;-70
2023/07/26 00:58:58;;;;;;;4.05;1.92;;;14.80;99.90;;;;;;2093893;28;20120;-70
2023/07/26 00:59:59;;;;;;;4.22;1.92;;;14.80;99.90;;;;;;2092363;28;20072;-71
2023/07/26 01:01:00;;;;;;;4.30;2.25;;;14.80;99.90;;;;;;2094638;28;20043;-71
2023/07/26 01:02:00;;;;;;;2.95;1.88;;;14.80;99.90;;;;;;2094585;28;20163;-71
2023/07/26 01:03:01;;;;;;;3.60;2.00;;;14.90;99.90;;;;;;2093429;28;20028;-71
2023/07/26 01:04:02;;;;;;;3.17;1.90;;;14.90;99.90;;;;;;2093078;28;20029;-71
2023/07/26 01:05:04;;;;;;;3.08;1.95;;;14.80;99.90;;;;;;2092571;28;20029;-71
2023/07/26 01:06:19;;;;;;;3.08;2.15;;;14.90;99.90;;;;;;2091724;28;21670;-71
2023/07/26 01:07:40;;;;;;;4.18;1.88;;;14.80;99.90;;;;;;2093427;28;20027;-71
2023/07/26 01:09:16;;;;;;;2.85;1.90;;;14.80;99.90;;;;;;2093471;28;20028;-71
2023/07/26 01:10:25;;;;;;;2.65;2.30;;;14.80;99.90;;;;;;2080115;28;20038;-71
2023/07/26 01:11:28;;;;;;;3.15;2.42;;;14.80;99.90;;;;;;2091329;28;20021;-71
2023/07/26 01:12:35;;;;;;;3.42;2.33;;;14.80;99.90;;;;;;2090863;28;20025;-71
2023/07/26 01:13:45;;;;;;;2.60;1.83;;;14.80;99.90;;;;;;2091406;28;20032;-71
2023/07/26 01:14:51;;;;;;;2.15;1.90;;;14.80;99.90;;;;;;2092987;28;20028;-71
2023/07/26 01:15:53;;;;;;;4.07;2.10;;;14.80;99.90;;;;;;2092253;28;20063;-71
2023/07/26 01:16:54;;;;;;;6.28;2.30;;;14.80;99.90;;;;;;2094011;28;20164;-70
2023/07/26 01:18:15;;;;;;;2.10;1.65;;;14.80;99.90;;;;;;2093321;28;20078;-70
2023/07/26 01:19:15;;;;;;;2.50;1.70;;;14.80;99.90;;;;;;2094861;28;20020;-70
2023/07/26 01:20:16;;;;;;;4.72;2.38;;;14.80;99.90;;;;;;2092014;28;20033;-70
2023/07/26 01:21:17;;;;;;;2.15;1.95;;;14.90;99.90;;;;;;2093572;28;20521;-70
2023/07/26 01:22:17;;;;;;;4.45;1.98;;;14.80;99.90;;;;;;2093665;28;20036;-70
2023/07/26 01:23:18;;;;;;;3.83;2.17;;;14.90;99.90;;;;;;2092343;28;20544;-70
2023/07/26 01:24:18;;;;;;;3.38;2.38;;;14.90;99.90;;;;;;2093299;28;20032;-71
2023/07/26 01:25:19;;;;;;;2.90;2.10;;;14.90;99.90;;;;;;2093010;28;20020;-71
2023/07/26 01:26:19;;;;;;;3.95;2.13;;;14.90;99.90;;;;;;2092825;28;20399;-71
2023/07/26 01:27:20;;;;;;;2.78;1.90;;;14.90;99.90;;;;;;2091496;28;20477;-71
2023/07/26 01:28:20;;;;;;;3.35;2.03;;;14.90;99.90;;;;;;2093491;28;20024;-70
2023/07/26 01:29:21;;;;;;;2.67;2.47;;;14.90;99.90;;;;;;2091262;28;20032;-70
2023/07/26 01:30:22;;;;;;;3.08;2.03;;;14.90;99.90;;;;;;2091909;28;20352;-71
2023/07/26 01:31:24;;;;;;;3.90;2.13;;;14.90;99.90;;;;;;2093285;28;20028;-71
2023/07/26 01:32:28;;;;;;;3.00;2.22;;;14.90;99.90;;;;;;2092223;28;20017;-71
2023/07/26 01:33:31;;;;;;;1.77;1.40;;;14.90;99.90;;;;;;2092388;28;20016;-71
2023/07/26 01:34:32;;;;;;;2.55;1.90;;;14.90;99.90;;;;;;2096239;28;20148;-71
2023/07/26 01:35:35;;;;;;;2.85;1.90;;;14.90;99.90;;;;;;2095828;28;20061;-71
2023/07/26 01:36:38;;;;;;;5.00;2.40;;;14.90;99.90;;;;;;2093544;28;20029;-71
2023/07/26 01:37:38;;;;;;;4.30;2.17;;;14.90;99.90;;;;;;2089480;28;20017;-71
2023/07/26 01:38:39;;;;;;;3.45;1.95;;;14.90;99.90;;;;;;2094441;28;20073;-71
2023/07/26 01:39:41;;;;;;;3.45;1.85;;;14.90;99.90;;;;;;2091400;28;20029;-71
2023/07/26 01:40:41;;;;;;;4.85;1.83;;;14.90;99.90;;;;;;2094293;28;20028;-71
2023/07/26 01:41:42;;;;;;;3.42;2.17;;;14.90;99.90;;;;;;2095049;28;20119;-71
2023/07/26 01:42:43;;;;;;;4.53;2.10;;;14.90;99.90;;;;;;2090467;28;20028;-71
2023/07/26 01:43:44;;;;;;;2.88;2.22;;;14.90;99.90;;;;;;2094253;28;20035;-71
2023/07/26 01:44:44;;;;;;;5.72;2.20;;;14.90;99.90;;;;;;2093687;28;20048;-71
2023/07/26 01:45:45;;;;;;;2.33;2.13;;;14.90;99.90;;;;;;2091312;28;20028;-71
2023/07/26 01:46:46;;;;;;;2.88;2.13;;;15.00;99.90;;;;;;2091602;28;20132;-70
2023/07/26 01:47:48;;;;;;;3.40;2.03;;;14.90;99.90;;;;;;2092671;28;20104;-70
2023/07/26 01:48:48;;;;;;;2.53;1.98;;;15.00;99.90;;;;;;2094666;28;20025;-70
2023/07/26 01:49:49;;;;;;;3.67;1.80;;;15.00;99.90;;;;;;2092453;28;20115;-70
2023/07/26 01:50:57;;;;;;;2.28;2.08;;;15.00;99.90;;;;;;2092474;28;20753;-70
2023/07/26 01:51:57;;;;;;;5.10;2.20;;;14.90;99.90;;;;;;2092526;28;20024;-70
2023/07/26 01:52:58;;;;;;;3.88;1.90;;;15.00;99.90;;;;;;2093764;28;20562;-70
2023/07/26 01:53:59;;;;;;;3.58;2.30;;;14.90;99.90;;;;;;2091936;28;20060;-70
2023/07/26 01:55:00;;;;;;;2.72;1.80;;;14.90;99.90;;;;;;2092573;28;20063;-71
2023/07/26 01:56:01;;;;;;;4.13;1.60;;;14.90;99.90;;;;;;2093522;28;20039;-71
2023/07/26 01:57:02;;;;;;;3.33;2.08;;;15.00;99.90;;;;;;2093305;28;20040;-71
2023/07/26 01:58:02;;;;;;;3.33;2.00;;;14.90;99.90;;;;;;2091862;28;20036;-71
2023/07/26 01:59:03;;;;;;;4.28;2.13;;;15.00;99.90;;;;;;2092466;28;20025;-71
2023/07/26 02:00:04;;;;;;;2.63;1.73;;;15.00;99.90;;;;;;2091655;28;20049;-71
2023/07/26 02:01:06;;;;;;;3.03;2.03;;;15.00;99.90;;;;;;2092330;28;20434;-71
2023/07/26 02:02:06;;;;;;;3.97;1.73;;;15.00;99.90;;;;;;2093063;28;20033;-71
2023/07/26 02:03:07;;;;;;;3.60;2.13;;;15.00;99.90;;;;;;2089195;28;20036;-71
2023/07/26 02:04:07;;;;;;;3.70;2.33;;;15.00;99.90;;;;;;2092437;28;20222;-71
2023/07/26 02:05:08;;;;;;;2.33;2.10;;;15.00;99.90;;;;;;2092823;28;20090;-71
2023/07/26 02:06:08;;;;;;;3.38;1.83;;;15.00;99.90;;;;;;2092742;28;20058;-71
2023/07/26 02:07:09;;;;;;;2.50;2.00;;;15.00;99.90;;;;;;2092980;28;20099;-71
2023/07/26 02:08:10;;;;;;;4.10;2.60;;;15.00;99.90;;;;;;2092713;28;20472;-71
2023/07/26 02:09:10;;;;;;;3.30;2.35;;;15.00;99.90;;;;;;2093465;28;20056;-71
2023/07/26 02:10:11;;;;;;;6.00;2.75;;;15.00;99.90;;;;;;2091642;28;20079;-71
2023/07/26 02:11:11;;;;;;;3.65;2.10;;;15.00;99.90;;;;;;2091785;28;20035;-71
2023/07/26 02:12:12;;;;;;;6.13;2.45;;;15.00;99.90;;;;;;2092959;28;20539;-71
2023/07/26 02:13:12;;;;;;;5.65;2.63;;;15.00;99.90;;;;;;2093007;28;20033;-71
2023/07/26 02:14:14;;;;;;;6.72;2.55;;;15.00;99.90;;;;;;2093223;28;20017;-71
2023/07/26 02:15:15;;;;;;;4.50;2.30;;;15.10;99.90;;;;;;2090406;28;20510;-71
2023/07/26 02:16:15;;;;;;;3.97;2.20;;;15.00;99.90;;;;;;2093572;28;20692;-71
2023/07/26 02:17:16;;;;;;;5.25;2.38;;;15.10;99.90;;;;;;2093049;28;20116;-71
2023/07/26 02:18:16;;;;;;;5.18;2.80;;;15.10;99.90;;;;;;2091926;28;20021;-71
2023/07/26 02:19:17;;;;;;;3.83;2.40;;;15.10;99.90;;;;;;2094339;28;20021;-71
2023/07/26 02:20:17;;;;;;;6.78;2.83;;;15.10;99.90;;;;;;2091490;28;20179;-71
2023/07/26 02:21:18;;;;;;;4.38;2.22;;;15.10;99.90;;;;;;2092695;28;20029;-71
2023/07/26 02:22:18;;;;;;;3.05;2.72;;;15.10;99.90;;;;;;2092489;28;20400;-71
2023/07/26 02:23:19;;;;;;;7.68;2.50;;;15.10;99.90;;;;;;2090318;28;20036;-71
2023/07/26 02:24:20;;;;;;;5.50;2.60;;;15.10;99.90;;;;;;2092728;28;20586;-71
2023/07/26 02:25:20;;;;;;;5.10;3.20;;;15.10;99.90;;;;;;2091385;28;20078;-71
2023/07/26 02:26:21;;;;;;;4.18;2.40;;;15.10;99.90;;;;;;2091545;28;20394;-71
2023/07/26 02:27:21;;;;;;;4.45;2.13;;;15.20;99.90;;;;;;2090885;28;20071;-71
2023/07/26 02:28:22;;;;;;;3.08;2.60;;;15.20;99.90;;;;;;2092137;28;20464;-71
2023/07/26 02:29:22;;;;;;;3.95;2.35;;;15.20;99.90;;;;;;2093113;28;20028;-71
2023/07/26 02:30:23;;;;;;;5.72;2.53;;;15.20;99.90;;;;;;2091770;28;20056;-71
2023/07/26 02:31:23;;;;;;;3.05;2.40;;;15.20;99.90;;;;;;2091233;28;20021;-71
2023/07/26 02:32:24;;;;;;;4.53;2.65;;;15.20;99.90;;;;;;2091518;28;20614;-71
2023/07/26 02:33:24;;;;;;;5.50;2.47;;;15.20;99.90;;;;;;2091769;28;20133;-70
2023/07/26 02:34:25;;;;;;;4.85;2.20;;;15.20;99.90;;;;;;2091833;28;20047;-70
2023/07/26 02:35:25;;;;;;;6.13;2.60;;;15.20;99.90;;;;;;2093595;28;20095;-70
2023/07/26 02:36:26;;;;;;;3.00;2.35;;;15.20;99.90;;;;;;2091968;28;20491;-70
2023/07/26 02:37:26;;;;;;;2.75;2.05;;;15.20;99.90;;;;;;2091324;28;20074;-70
2023/07/26 02:38:27;;;;;;;3.72;2.40;;;15.30;99.90;;;;;;2092343;28;20025;-70
2023/07/26 02:39:28;;;;;;;3.25;2.25;;;15.30;99.90;;;;;;2091570;28;20024;-70
2023/07/26 02:40:29;;;;;;;3.72;2.55;;;15.30;99.90;;;;;;2093141;28;20016;-69
2023/07/26 02:41:30;;;;;;;4.38;2.60;;;15.30;99.90;;;;;;2091359;28;20043;-69
2023/07/26 02:42:30;;;;;;;4.70;2.60;;;15.30;99.90;;;;;;2090695;28;20028;-69
2023/07/26 02:43:31;;;;;;;9.60;3.58;;;15.30;99.90;;;;;;2092039;28;20107;-69
2023/07/26 02:44:31;;;;;;;6.53;3.80;;;15.30;99.90;;;;;;2091430;28;20385;-69
2023/07/26 02:45:32;;;;;;;10.55;3.80;;;15.30;99.90;;;;;;2091161;28;20138;-69
2023/07/26 02:46:32;;;;;;;7.05;3.17;;;15.30;99.90;;;;;;2093366;28;20044;-69
2023/07/26 02:47:33;;;;;;;6.28;3.60;;;15.30;99.90;;;;;;2093188;28;20031;-69
2023/07/26 02:48:34;;;;;;;6.00;3.58;;;15.30;99.90;;;;;;2093741;28;20472;-69
2023/07/26 02:49:34;;;;;;;6.82;3.60;;;15.30;99.90;;;;;;2092122;28;20025;-69
2023/07/26 02:50:35;;;;;;;3.88;2.90;;;15.30;99.90;;;;;;2092135;28;20123;-70
2023/07/26 02:51:35;;;;;;;7.80;3.33;;;15.30;99.90;;;;;;2092357;28;20029;-70
2023/07/26 02:52:36;;;;;;;9.32;3.78;;;15.40;99.90;;;;;;2091406;28;20128;-70
2023/07/26 02:53:38;;;;;;;7.72;3.30;;;15.40;99.90;;;;;;2091984;28;20051;-70
2023/07/26 02:54:39;;;;;;;6.80;2.75;;;15.40;99.90;;;;;;2093280;28;20481;-70
2023/07/26 02:55:42;;;;;;;3.80;2.65;;;15.40;99.90;;;;;;2091716;28;20397;-70
2023/07/26 02:56:43;;;;;;;4.50;2.90;;;15.40;99.90;;;;;;2092302;28;20037;-70
2023/07/26 02:57:43;;;;;;;7.95;2.97;;;15.40;99.90;;;;;;2091032;28;20473;-70
2023/07/26 02:58:44;;;;;;;3.10;2.22;;;15.40;99.90;;;;;;2092701;28;20070;-70
2023/07/26 02:59:44;;;;;;;5.32;2.85;;;15.40;99.90;;;;;;2091462;28;20024;-70
2023/07/26 03:00:45;;;;;;;4.93;2.90;;;15.40;99.90;;;;;;2092502;28;20488;-70
2023/07/26 03:01:46;;;;;;;5.38;3.08;;;15.40;99.90;;;;;;2092418;28;20056;-70
2023/07/26 03:02:46;;;;;;;5.20;2.38;;;15.40;99.90;;;;;;2091592;28;20067;-70
2023/07/26 03:03:47;;;;;;;7.70;2.50;;;15.40;99.90;;;;;;2091462;28;20025;-70
2023/07/26 03:04:47;;;;;;;2.80;2.00;;;15.40;99.90;;;;;;2091620;28;20029;-70
2023/07/26 03:05:48;;;;;;;2.83;2.20;;;15.40;99.90;;;;;;2092214;28;20120;-70
2023/07/26 03:06:50;;;;;;;2.38;2.10;;;15.40;99.90;;;;;;2093084;28;20062;-70
2023/07/26 03:07:51;;;;;;;2.20;2.00;;;15.40;99.90;;;;;;2092691;28;20063;-70
2023/07/26 03:08:51;;;;;;;6.45;2.00;;;15.40;99.90;;;;;;2090945;28;20029;-70
2023/07/26 03:09:52;;;;;;;3.33;2.10;;;15.40;99.90;;;;;;2091578;28;20114;-70
2023/07/26 03:10:52;;;;;;;2.63;1.80;;;15.40;99.90;;;;;;2091927;28;20025;-70
2023/07/26 03:11:53;;;;;;;3.05;1.80;;;15.40;99.90;;;;;;2092585;28;20036;-70
2023/07/26 03:12:54;;;;;;;2.60;1.70;;;15.40;99.90;;;;;;2090204;28;20049;-70
2023/07/26 03:13:55;;;;;;;2.35;1.60;;;15.40;99.90;;;;;;2093159;28;20028;-70
2023/07/26 03:14:56;;;;;;;3.00;1.60;;;15.40;99.90;;;;;;2090814;28;20025;-70
2023/07/26 03:15:56;;;;;;;1.77;1.40;;;15.40;99.90;;;;;;2092781;28;20025;-70
2023/07/26 03:16:57;;;;;;;3.33;1.92;;;15.40;99.90;;;;;;2092274;28;20675;-70
2023/07/26 03:17:57;;;;;;;1.98;1.40;;;15.40;99.90;;;;;;2092041;28;20090;-70
2023/07/26 03:18:58;;;;;;;1.70;1.60;;;15.40;99.90;;;;;;2091993;28;20053;-70
2023/07/26 03:19:58;;;;;;;2.45;1.50;;;15.40;99.90;;;;;;2091906;28;20024;-70
2023/07/26 03:20:59;;;;;;;4.20;1.48;;;15.40;99.90;;;;;;2091699;28;20036;-70
2023/07/26 03:22:00;;;;;;;3.47;1.80;;;15.40;99.90;;;;;;2091579;28;20048;-70
2023/07/26 03:23:00;;;;;;;4.00;1.75;;;15.40;99.90;;;;;;2092426;28;20032;-70
2023/07/26 03:24:01;;;;;;;2.55;1.58;;;15.40;99.90;;;;;;2092165;28;20108;-70
2023/07/26 03:25:02;;;;;;;2.92;1.50;;;15.40;99.90;;;;;;2092572;28;20085;-70
2023/07/26 03:26:02;;;;;;;1.85;1.27;;;15.40;99.90;;;;;;2093203;28;20031;-70
2023/07/26 03:27:03;;;;;;;2.42;1.65;;;15.40;99.90;;;;;;2092053;28;20013;-70
2023/07/26 03:28:04;;;;;;;2.95;1.50;;;15.40;99.90;;;;;;2091431;28;20039;-70
2023/07/26 03:29:04;;;;;;;1.60;1.48;;;15.40;99.90;;;;;;2091387;28;20115;-70
2023/07/26 03:30:05;;;;;;;2.67;1.58;;;15.40;99.90;;;;;;2090778;28;20548;-70
2023/07/26 03:31:06;;;;;;;3.15;1.88;;;15.30;99.90;;;;;;2092448;28;20028;-70
2023/07/26 03:32:07;;;;;;;4.07;1.83;;;15.40;99.90;;;;;;2091077;28;20013;-70
2023/07/26 03:33:09;;;;;;;2.88;1.70;;;15.40;99.90;;;;;;2090814;28;20073;-70
2023/07/26 03:34:09;;;;;;;1.63;1.50;;;15.30;99.90;;;;;;2091514;28;20511;-70
2023/07/26 03:35:10;;;;;;;3.13;1.70;;;15.30;99.90;;;;;;2093932;28;20419;-70
2023/07/26 03:36:10;;;;;;;1.92;1.50;;;15.30;99.90;;;;;;2093983;28;20028;-70
2023/07/26 03:37:11;;;;;;;3.35;1.80;;;15.30;99.90;;;;;;2090649;28;20036;-70
2023/07/26 03:38:11;;;;;;;4.97;1.33;;;15.30;99.90;;;;;;2092822;28;20017;-70
2023/07/26 03:39:12;;;;;;;2.47;1.30;;;15.30;99.90;;;;;;2092330;28;20032;-70
2023/07/26 03:40:12;;;;;;;2.15;1.48;;;15.30;99.90;;;;;;2090757;28;20032;-70
2023/07/26 03:41:13;;;;;;;2.60;1.50;;;15.30;99.90;;;;;;2091966;28;20055;-70
2023/07/26 03:42:16;;;;;;;1.40;1.00;;;15.30;99.90;;;;;;2092079;28;20495;-70
2023/07/26 03:43:16;;;;;;;3.08;1.55;;;15.20;99.90;;;;;;2091740;28;20027;-70
2023/07/26 03:44:17;;;;;;;1.27;1.17;;;15.20;99.90;;;;;;2092075;28;20111;-70
2023/07/26 03:45:17;;;;;;;2.65;1.58;;;15.20;99.90;;;;;;2090120;28;20021;-70
2023/07/26 03:46:18;;;;;;;1.40;1.30;;;15.30;99.90;;;;;;2093710;28;20033;-70
2023/07/26 03:47:19;;;;;;;2.75;1.10;;;15.20;99.90;;;;;;2090474;28;20381;-70
2023/07/26 03:48:19;;;;;;;2.35;1.27;;;15.20;99.90;;;;;;2092603;28;20025;-70
2023/07/26 03:49:20;;;;;;;1.88;1.08;;;15.30;99.90;;;;;;2091808;28;20484;-70
2023/07/26 03:50:21;;;;;;;1.50;1.35;;;15.20;99.90;;;;;;2090784;28;20044;-72
2023/07/26 03:51:21;;;;;;;1.98;1.17;;;15.30;99.90;;;;;;2092269;28;20024;-72
2023/07/26 03:52:22;;;;;;;1.75;1.55;;;15.20;99.90;;;;;;2089559;28;20023;-70
2023/07/26 03:53:22;;;;;;;2.92;1.30;;;15.30;99.90;;;;;;2093149;28;20063;-70
2023/07/26 03:54:23;;;;;;;1.70;1.20;;;15.20;99.90;;;;;;2091956;28;20028;-70
2023/07/26 03:55:23;;;;;;;1.40;1.30;;;15.20;99.90;;;;;;2091388;28;20480;-70
2023/07/26 03:56:24;;;;;;;1.88;1.50;;;15.20;99.90;;;;;;2093117;28;20017;-70
2023/07/26 03:57:24;;;;;;;1.50;1.40;;;15.20;99.90;;;;;;2093038;28;20060;-71
2023/07/26 03:58:25;;;;;;;3.03;1.65;;;15.20;99.90;;;;;;2091811;28;20025;-71
2023/07/26 03:59:25;;;;;;;2.22;1.40;;;15.20;99.90;;;;;;2091322;28;20028;-70
2023/07/26 04:00:26;;;;;;;1.35;1.25;;;15.20;99.90;;;;;;2100310;28;20044;-70
2023/07/26 04:01:27;;;;;;;1.90;1.38;;;15.20;99.90;;;;;;2093108;28;20499;-70
2023/07/26 04:02:27;;;;;;;2.50;1.55;;;15.20;99.90;;;;;;2092752;28;20020;-70
2023/07/26 04:03:28;;;;;;;3.80;1.40;;;15.10;99.90;;;;;;2091035;28;20024;-70
2023/07/26 04:04:28;;;;;;;1.60;1.50;;;15.20;99.90;;;;;;2091827;28;20021;-70
2023/07/26 04:05:29;;;;;;;1.27;1.17;;;15.20;99.90;;;;;;2091943;28;20031;-70
2023/07/26 04:06:30;;;;;;;1.85;1.38;;;15.20;99.90;;;;;;2090885;28;20032;-70
2023/07/26 04:07:30;;;;;;;1.90;1.27;;;15.20;99.90;;;;;;2091958;28;20400;-70
2023/07/26 04:08:31;;;;;;;3.55;1.67;;;15.20;99.90;;;;;;2092896;28;20032;-71
2023/07/26 04:09:32;;;;;;;1.92;1.60;;;15.20;99.90;;;;;;2093790;28;20020;-71
2023/07/26 04:10:33;;;;;;;1.70;1.60;;;15.20;99.90;;;;;;2092744;28;20526;-70
2023/07/26 04:11:33;;;;;;;2.30;1.77;;;15.20;99.90;;;;;;2091769;28;20029;-70
2023/07/26 04:12:34;;;;;;;3.45;1.48;;;15.20;99.90;;;;;;2093208;28;20104;-70
2023/07/26 04:13:34;;;;;;;3.47;1.73;;;15.20;99.90;;;;;;2090568;28;20099;-70
2023/07/26 04:14:35;;;;;;;2.25;1.40;;;15.20;99.90;;;;;;2092283;28;20103;-70
2023/07/26 04:15:35;;;;;;;2.15;1.60;;;15.20;99.90;;;;;;2092740;28;20040;-70
2023/07/26 04:16:36;;;;;;;2.00;1.30;;;15.20;99.90;;;;;;2092708;28;20028;-70
2023/07/26 04:17:36;;;;;;;1.95;1.40;;;15.20;99.90;;;;;;2093563;28;20029;-70
2023/07/26 04:18:37;;;;;;;1.70;1.60;;;15.20;99.90;;;;;;2090367;28;20083;-70
2023/07/26 04:19:38;;;;;;;1.70;1.60;;;15.10;99.90;;;;;;2090711;28;20033;-70
2023/07/26 04:20:38;;;;;;;3.10;1.90;;;15.20;99.90;;;;;;2090654;28;20047;-70
2023/07/26 04:21:39;;;;;;;2.90;1.65;;;15.20;99.90;;;;;;2090689;28;20025;-70
2023/07/26 04:22:39;;;;;;;2.55;1.67;;;15.20;99.90;;;;;;2092386;28;20097;-70
2023/07/26 04:23:42;;;;;;;2.13;1.80;;;15.20;99.90;;;;;;2091551;28;20053;-70
2023/07/26 04:24:43;;;;;;;6.57;2.50;;;15.20;99.90;;;;;;2089269;28;20021;-70
2023/07/26 04:25:50;;;;;;;2.22;2.03;;;15.20;99.90;;;;;;2093558;28;20025;-70
2023/07/26 04:26:52;;;;;;;2.78;2.10;;;15.20;99.90;;;;;;2092086;28;20029;-70
2023/07/26 04:27:53;;;;;;;2.22;1.83;;;15.20;99.90;;;;;;2091529;28;20155;-70
2023/07/26 04:28:53;;;;;;;2.30;2.10;;;15.20;99.90;;;;;;2091675;28;20055;-70
2023/07/26 04:29:54;;;;;;;7.57;2.10;;;15.20;99.90;;;;;;2091654;28;20029;-70
2023/07/26 04:30:54;;;;;;;3.00;1.75;;;15.20;99.90;;;;;;2093484;28;20069;-70
2023/07/26 04:31:55;;;;;;;3.63;2.40;;;15.20;99.90;;;;;;2092964;28;20033;-70
2023/07/26 04:32:56;;;;;;;2.42;2.22;;;15.20;99.90;;;;;;2092336;28;20021;-70
2023/07/26 04:33:56;;;;;;;3.97;2.17;;;15.20;99.90;;;;;;2091277;28;20024;-70
2023/07/26 04:34:57;;;;;;;4.10;2.20;;;15.30;99.90;;;;;;2091488;28;20031;-70
2023/07/26 04:35:57;;;;;;;4.75;3.17;;;15.30;99.90;;;;;;2091711;28;20040;-70
2023/07/26 04:36:58;;;;;;;4.72;2.83;;;15.30;99.90;;;;;;2090966;28;20480;-70
2023/07/26 04:37:59;;;;;;;3.53;2.60;;;15.30;99.90;;;;;;2090306;28;20657;-70
2023/07/26 04:38:59;;;;;;;3.13;2.40;;;15.30;99.90;;;;;;2091123;28;20020;-70
2023/07/26 04:40:00;;;;;;;4.25;2.80;;;15.30;99.90;;;;;;2090696;28;20111;-70
2023/07/26 04:41:03;;;;;;;4.72;3.67;;;15.40;99.90;;;;;;2090912;28;20043;-70
2023/07/26 04:42:03;;;;;;;2.97;2.63;;;15.40;99.90;;;;;;2090905;28;20033;-70
2023/07/26 04:43:04;;;;;;;5.57;3.25;;;15.50;99.90;;;;;;2093280;28;20068;-70
2023/07/26 04:44:04;;;;;;;3.92;2.80;;;15.50;99.90;;;;;;2089725;28;20031;-70
2023/07/26 04:45:05;;;;;;;4.25;2.92;;;15.50;99.90;;;;;;2090093;28;20078;-70
2023/07/26 04:46:06;;;;;;;3.33;3.03;;;15.50;99.90;;;;;;2092076;28;20025;-70
2023/07/26 04:47:07;;;;;;;5.47;3.60;;;15.50;99.90;;;;;;2089626;28;20049;-70
2023/07/26 04:48:07;;;;;;;6.30;3.70;;;15.50;99.90;;;;;;2094178;28;20490;-70
2023/07/26 04:49:08;;;;;;;5.88;3.42;;;15.60;99.90;;;;;;2091270;28;20021;-70
2023/07/26 04:50:08;;;;;;;5.90;3.42;;;15.60;99.90;;;;;;2092180;28;20024;-71
2023/07/26 04:51:10;;;;;;;3.17;2.78;;;15.60;99.90;;;;;;2090255;28;20029;-71
2023/07/26 04:52:11;;;;;;;4.65;3.80;;;15.60;99.90;;;;;;2090634;28;20017;-71
2023/07/26 04:53:11;;;;;;;6.18;3.83;;;15.60;99.90;;;;;;2089864;28;20087;-71
2023/07/26 04:54:12;;;;;;;6.15;3.50;;;15.70;99.90;;;;;;2091358;28;20111;-71
2023/07/26 04:55:13;;;;;;;6.57;3.75;;;15.60;99.90;;;;;;2093079;28;20420;-71
2023/07/26 04:56:15;;;;;;;4.55;4.03;;;15.70;99.90;;;;;;2091517;28;20027;-71
2023/07/26 04:57:16;;;;;;;7.90;4.50;;;15.60;99.90;;;;;;2091178;28;20024;-71
2023/07/26 04:58:17;;;;;;;5.13;3.65;;;15.70;99.90;;;;;;2091872;28;20083;-71
2023/07/26 04:59:18;;;;;;;6.43;3.95;;;15.70;99.90;;;;;;2091396;28;20082;-71
2023/07/26 05:00:18;;;;;;;4.75;3.83;;;15.70;99.90;;;;;;2090566;28;20562;-71
2023/07/26 05:01:19;;;;;;;3.47;3.17;;;15.70;99.90;;;;;;2091693;28;20094;-71
2023/07/26 05:02:20;;;;;;;5.05;4.07;;;15.80;99.90;;;;;;2091034;28;20086;-71
2023/07/26 05:03:20;;;;;;;3.63;3.33;;;15.80;99.90;;;;;;2091898;28;20025;-71
2023/07/26 05:04:21;;;;;;;5.63;4.22;;;15.80;99.90;;;;;;2090533;28;20024;-71
2023/07/26 05:05:21;;;;;;;4.35;3.95;;;15.80;99.90;;;;;;2090047;28;20075;-71
2023/07/26 05:06:24;;;;;;;6.00;3.78;;;15.80;99.90;;;;;;2090440;28;20106;-71
2023/07/26 05:07:24;;;;;;;3.75;3.00;;;15.80;99.90;;;;;;2090003;28;20507;-71
2023/07/26 05:08:25;;;;;;;4.35;3.92;;;15.80;99.90;;;;;;2091591;28;20824;-71
2023/07/26 05:09:26;;;;;;;5.85;4.35;;;15.90;99.90;;;;;;2091257;28;20371;-71
2023/07/26 05:10:26;;;;;;;6.65;3.83;;;15.90;99.90;;;;;;2090395;28;20023;-71
2023/07/26 05:11:27;;;;;;;9.20;3.63;;;15.90;99.90;;;;;;2091775;28;20125;-71
2023/07/26 05:12:27;;;;;;;6.05;4.07;;;15.90;99.90;;;;;;2090267;28;20025;-71
2023/07/26 05:13:28;;;;;;;8.20;3.90;;;15.90;99.90;;;;;;2092656;28;20074;-71
2023/07/26 05:14:29;;;;;;;6.38;3.28;;;15.90;99.90;;;;;;2094437;28;20067;-71
2023/07/26 05:15:29;;;;;;;3.38;3.08;;;15.90;99.90;;;;;;2096359;28;20082;-71
2023/07/26 05:16:30;;;;;;;4.75;3.08;;;15.90;99.90;;;;;;2094995;28;20020;-71
2023/07/26 05:17:30;;;;;;;5.05;3.72;;;15.90;99.90;;;;;;2095070;28;20033;-71
2023/07/26 05:18:31;;;;;;;4.78;3.42;;;15.90;99.90;;;;;;2094972;28;20079;-71